Fircrest, Washington
Current Conditions -  °F | °C
As of 9:53 AM on Friday 28 Nov 2014 (Local Time) from KTIW Reporting Station
Overcast Overcast  
Wind Chill: 54°   Ceiling: 3600
Heat Index: 54°   Visibility: 10mi
Dew Point: 50°   Wind: 16mph
Humidity: 86%   Direction: 190°S
Pressure: 29.5"   Gusts: 25mph
Location:  47.2285°N, 122.536°W
Report Text: KTIW 281753Z 19014G22KT 10SM BKN036 BKN047 OVC065 12/10 A2950 RMK AO2 SLP988 60001 T01220100 10122 20117 56015
Loading
Personal Weather Stations






























Interactive Weather Map New forecast layout! Learn more

10-Day Weather Forecast

Advertisements
Track Severe Weather on mobile